Time;durP1;ratioP1;P1;durP2;ratioP2;P2;SDS_P1;SDS_P2;PMS_P1;PMS_P2;Temp;Humidity;BMP_temperature;BMP_pressure;BME280_temperature;BME280_humidity;BME280_pressure;Samples;Min_cycle;Max_cycle;Signal;HPM_P1;HPM_P2
2021/08/10 00:01:49;;;;;;;6.50;4.10;;;;;;;25.78;41.58;100170.25;5070837;28;20028;-23
2021/08/10 00:04:15;;;;;;;5.82;4.05;;;;;;;25.98;41.12;100169.69;5088584;28;20067;-22
2021/08/10 00:06:40;;;;;;;5.95;3.85;;;;;;;25.97;41.31;100162.63;5089014;28;20027;-23
2021/08/10 00:09:06;;;;;;;7.20;4.47;;;;;;;25.97;41.13;100179.00;5088731;28;20554;-23
2021/08/10 00:11:31;;;;;;;6.60;3.92;;;;;;;25.98;41.33;100177.88;5088744;28;20137;-22
2021/08/10 00:13:57;;;;;;;6.40;4.53;;;;;;;25.71;41.61;100197.25;5088784;28;20032;-22
2021/08/10 00:16:22;;;;;;;6.10;3.65;;;;;;;25.67;42.09;100189.69;5088423;28;20420;-23
2021/08/10 00:18:48;;;;;;;6.20;4.07;;;;;;;25.65;41.45;100202.84;5088577;28;20035;-23
2021/08/10 00:21:13;;;;;;;8.43;3.67;;;;;;;25.75;41.72;100187.31;5088642;28;20028;-23
2021/08/10 00:23:39;;;;;;;7.35;4.20;;;;;;;25.04;43.90;100188.13;5088589;28;20032;-23
2021/08/10 00:26:04;;;;;;;8.52;4.22;;;;;;;25.39;42.95;100180.09;5088083;28;20036;-23
2021/08/10 00:28:29;;;;;;;9.63;4.45;;;;;;;25.60;42.15;100181.16;5088735;28;20407;-23
2021/08/10 00:30:55;;;;;;;8.40;4.32;;;;;;;25.34;42.25;100177.53;5088406;28;20038;-23
2021/08/10 00:33:20;;;;;;;8.27;3.97;;;;;;;24.81;43.39;100152.69;5088439;28;20051;-23
2021/08/10 00:35:46;;;;;;;7.55;4.22;;;;;;;24.99;43.29;100166.44;5088461;28;20563;-23
2021/08/10 00:38:11;;;;;;;6.75;4.10;;;;;;;24.71;44.52;100172.03;5087804;28;20047;-23
2021/08/10 00:40:39;;;;;;;7.20;3.60;;;;;;;24.51;44.11;100148.81;5053661;28;20495;-23
2021/08/10 00:43:31;;;;;;;7.97;3.92;;;;;;;24.77;43.92;100170.78;5070108;28;20028;-23
2021/08/10 00:45:57;;;;;;;6.85;3.63;;;;;;;24.74;43.46;100162.41;5087955;28;20036;-22
2021/08/10 00:48:22;;;;;;;7.72;3.63;;;;;;;24.79;43.93;100174.00;5087999;28;20039;-23
2021/08/10 00:50:48;;;;;;;5.65;3.47;;;;;;;24.19;45.88;100160.69;5088368;28;20105;-23
2021/08/10 00:53:14;;;;;;;4.95;3.65;;;;;;;24.43;44.62;100163.16;5088045;28;20032;-23
2021/08/10 00:55:39;;;;;;;9.32;4.38;;;;;;;25.08;43.86;100170.00;5069869;28;20039;-23
2021/08/10 00:58:05;;;;;;;10.25;4.47;;;;;;;25.00;43.76;100170.75;5087432;28;20063;-23
2021/08/10 01:00:30;;;;;;;8.82;4.32;;;;;;;24.85;43.75;100178.22;5087883;28;20454;-22
2021/08/10 01:02:56;;;;;;;6.18;3.72;;;;;;;25.18;43.10;100180.63;5087692;28;20028;-23
2021/08/10 01:05:21;;;;;;;7.35;3.95;;;;;;;24.30;46.17;100164.81;5087502;28;20049;-23
2021/08/10 01:07:55;;;;;;;6.50;4.20;;;;;;;23.83;46.48;100154.13;5087761;28;20479;-23
2021/08/10 01:10:25;;;;;;;8.27;3.90;;;;;;;23.57;47.13;100159.28;5052891;28;20548;-23
2021/08/10 01:13:05;;;;;;;7.55;4.18;;;;;;;23.56;47.68;100154.97;5069860;28;20028;-23
2021/08/10 01:15:32;;;;;;;10.98;4.00;;;;;;;23.64;47.12;100151.53;5069526;28;20028;-22
2021/08/10 01:18:14;;;;;;;8.10;4.50;;;;;;;23.44;49.17;100160.09;5087644;28;20036;-23
2021/08/10 01:20:57;;;;;;;6.30;3.92;;;;;;;23.33;49.34;100161.41;5087593;28;20028;-23
2021/08/10 01:23:26;;;;;;;8.35;4.45;;;;;;;23.13;48.84;100157.97;5087707;28;20027;-23
2021/08/10 01:26:17;;;;;;;8.88;4.05;;;;;;;22.78;49.99;100146.59;5069811;28;20038;-22
2021/08/10 01:28:46;;;;;;;9.65;4.57;;;;;;;22.66;50.25;100155.22;5087365;28;20036;-23
2021/08/10 01:31:26;;;;;;;7.32;5.00;;;;;;;22.46;50.31;100148.19;5087204;28;20039;-23
2021/08/10 01:33:54;;;;;;;8.90;4.80;;;;;;;22.69;49.42;100153.81;5087983;28;20035;-23
2021/08/10 01:36:20;;;;;;;8.73;4.75;;;;;;;23.32;49.13;100159.81;5069355;28;20028;-23
2021/08/10 01:38:47;;;;;;;9.50;4.93;;;;;;;23.67;47.75;100150.91;5087491;28;20038;-22
2021/08/10 01:41:13;;;;;;;7.78;5.00;;;;;;;24.04;45.86;100140.88;5052959;28;20027;-23
2021/08/10 01:43:40;;;;;;;9.30;5.18;;;;;;;24.34;45.65;100152.19;5069103;28;20093;-23
2021/08/10 01:46:05;;;;;;;8.60;4.55;;;;;;;23.80;46.84;100126.72;5086926;28;20569;-22
2021/08/10 01:48:31;;;;;;;7.28;4.60;;;;;;;24.05;46.49;100150.66;5087263;28;20032;-23
2021/08/10 01:50:57;;;;;;;10.50;5.53;;;;;;;24.10;45.83;100130.66;5086965;28;20028;-23
2021/08/10 01:53:22;;;;;;;11.05;5.20;;;;;;;23.64;47.54;100134.38;5052508;28;20031;-23
2021/08/10 01:55:48;;;;;;;8.20;4.97;;;;;;;23.83;46.74;100142.44;5069000;28;20028;-22
2021/08/10 01:58:13;;;;;;;10.85;4.60;;;;;;;23.52;47.29;100134.06;5048319;28;20436;-23
2021/08/10 02:00:41;;;;;;;12.73;4.90;;;;;;;23.33;47.89;100142.34;5049083;28;20032;-22
2021/08/10 02:03:09;;;;;;;10.55;5.13;;;;;;;23.49;47.57;100132.78;5049142;28;20032;-23
2021/08/10 02:05:34;;;;;;;11.88;4.82;;;;;;;24.14;46.25;100137.09;5066737;28;20112;-23
2021/08/10 02:08:00;;;;;;;33.88;7.28;;;;;;;24.37;45.85;100139.84;5065498;28;20114;-23
2021/08/10 02:10:26;;;;;;;22.30;6.95;;;;;;;24.29;45.76;100138.66;5066737;28;20787;-22
2021/08/10 02:12:52;;;;;;;11.23;5.32;;;;;;;23.92;45.57;100113.38;5065723;28;20039;-23
2021/08/10 02:15:17;;;;;;;9.82;5.45;;;;;;;23.44;46.93;100130.97;5065569;28;20029;-23
2021/08/10 02:17:43;;;;;;;13.68;5.65;;;;;;;23.84;46.16;100119.53;5068076;28;20035;-23
2021/08/10 02:20:11;;;;;;;11.73;5.60;;;;;;;24.04;46.02;100110.91;5069213;28;20086;-22
2021/08/10 02:22:36;;;;;;;17.55;6.10;;;;;;;24.14;45.63;100136.31;5070393;28;20028;-23
2021/08/10 02:25:05;;;;;;;10.23;5.18;;;;;;;24.27;44.89;100119.09;5069957;28;20037;-23
2021/08/10 02:27:35;;;;;;;10.57;5.25;;;;;;;24.37;45.13;100142.56;5069109;28;20032;-23
2021/08/10 02:30:04;;;;;;;11.98;5.18;;;;;;;24.28;44.89;100145.25;5069204;28;20020;-23
2021/08/10 02:32:30;;;;;;;10.75;5.45;;;;;;;24.35;44.63;100140.16;5070323;28;20032;-22
2021/08/10 02:34:56;;;;;;;14.15;5.85;;;;;;;24.11;44.78;100121.41;5052385;28;20044;-23
2021/08/10 02:37:21;;;;;;;10.27;5.10;;;;;;;23.51;45.82;100108.78;5052547;28;20476;-23
2021/08/10 02:39:48;;;;;;;13.05;5.25;;;;;;;23.33;46.55;100140.44;5070388;28;20074;-23
2021/08/10 02:42:15;;;;;;;10.65;4.97;;;;;;;23.49;46.42;100143.66;5068567;28;20116;-23
2021/08/10 02:44:41;;;;;;;15.63;5.10;;;;;;;23.85;45.51;100123.88;5070348;28;20032;-23
2021/08/10 02:47:07;;;;;;;14.35;5.05;;;;;;;23.13;46.89;100152.53;5052100;28;20051;-23
2021/08/10 02:49:32;;;;;;;11.18;4.82;;;;;;;22.69;47.32;100123.91;5070279;28;20033;-22
2021/08/10 02:51:58;;;;;;;10.65;4.20;;;;;;;22.45;49.17;100133.00;5070198;28;20032;-22
2021/08/10 02:54:23;;;;;;;9.98;4.35;;;;;;;23.01;47.62;100149.47;5069819;28;20066;-23
2021/08/10 02:56:56;;;;;;;9.98;5.57;;;;;;;23.63;46.11;100154.53;5070932;28;20099;-23
2021/08/10 02:59:33;;;;;;;14.13;4.93;;;;;;;22.60;48.62;100144.75;5071945;28;20028;-22
2021/08/10 03:02:19;;;;;;;9.40;5.28;;;;;;;22.29;48.76;100160.69;5071714;28;20102;-23
2021/08/10 03:04:54;;;;;;;11.05;5.55;;;;;;;22.11;49.59;100168.53;5072027;28;20047;-22
2021/08/10 03:07:20;;;;;;;52.50;8.68;;;;;;;22.82;48.09;100166.66;5072438;28;20028;-23
2021/08/10 03:09:46;;;;;;;16.58;9.00;;;;;;;22.74;48.11;100166.50;5072194;28;20082;-23
2021/08/10 03:12:12;;;;;;;22.40;14.50;;;;;;;22.45;49.09;100165.63;5055062;28;20047;-23
2021/08/10 03:14:37;;;;;;;21.80;13.48;;;;;;;22.53;47.58;100144.31;5089896;28;20392;-23
2021/08/10 03:17:03;;;;;;;20.17;11.32;;;;;;;22.50;48.57;100156.56;5055478;28;20036;-22
2021/08/10 03:19:29;;;;;;;20.17;14.05;;;;;;;22.71;48.02;100165.19;5054981;28;20028;-23
2021/08/10 03:21:54;;;;;;;18.83;12.13;;;;;;;22.79;48.56;100169.94;5071536;28;20032;-23
2021/08/10 03:24:20;;;;;;;57.03;34.97;;;;;;;22.77;47.73;100177.59;5054885;28;20028;-23
2021/08/10 03:26:46;;;;;;;71.30;16.65;;;;;;;21.89;51.29;100166.41;5054883;28;20043;-23
2021/08/10 03:29:11;;;;;;;32.28;14.45;;;;;;;21.61;51.80;100173.53;5071463;28;20031;-23
2021/08/10 03:31:40;;;;;;;15.68;8.50;;;;;;;21.30;52.33;100163.00;5054833;28;20074;-23
2021/08/10 03:34:06;;;;;;;19.80;9.77;;;;;;;21.28;52.69;100178.75;5071205;28;20145;-23
2021/08/10 03:36:31;;;;;;;26.05;15.52;;;;;;;21.62;51.50;100170.53;5070945;28;20126;-23
2021/08/10 03:38:57;;;;;;;18.00;9.57;;;;;;;21.36;53.41;100182.75;5089308;28;20024;-22
2021/08/10 03:41:23;;;;;;;20.95;7.80;;;;;;;21.03;53.73;100188.75;5088103;28;20042;-23
2021/08/10 03:43:49;;;;;;;30.17;12.32;;;;;;;21.78;52.10;100192.03;5071191;28;20024;-22
2021/08/10 03:46:14;;;;;;;29.00;17.50;;;;;;;22.02;50.34;100176.50;5071190;28;20031;-22
2021/08/10 03:48:42;;;;;;;38.10;18.98;;;;;;;21.44;52.28;100174.00;5071237;28;20025;-23
2021/08/10 03:51:07;;;;;;;43.22;26.77;;;;;;;21.91;51.61;100202.22;5054874;28;20039;-23
2021/08/10 03:53:34;;;;;;;51.88;34.30;;;;;;;22.20;50.44;100190.41;5071067;28;20024;-22
2021/08/10 03:56:00;;;;;;;34.58;20.45;;;;;;;22.61;50.29;100214.28;5070961;28;20089;-23
2021/08/10 03:58:25;;;;;;;37.10;22.58;;;;;;;21.99;52.17;100211.63;5050622;28;20052;-22
2021/08/10 04:00:51;;;;;;;28.77;16.20;;;;;;;22.01;51.38;100187.69;5067710;28;20055;-22
2021/08/10 04:03:16;;;;;;;20.75;11.20;;;;;;;21.63;53.53;100207.41;5050622;28;20028;-23
2021/08/10 04:05:43;;;;;;;23.17;10.80;;;;;;;21.80;53.43;100206.13;5050811;28;20499;-22
2021/08/10 04:08:13;;;;;;;20.27;11.30;;;;;;;21.67;53.37;100205.75;5068481;28;20028;-23
2021/08/10 04:10:40;;;;;;;25.27;12.75;;;;;;;21.51;53.80;100196.16;5067482;28;20025;-23
2021/08/10 04:13:08;;;;;;;25.45;12.32;;;;;;;21.57;54.22;100195.00;5068693;28;20032;-22
2021/08/10 04:15:53;;;;;;;35.55;10.90;;;;;;;21.71;55.10;100194.31;5068777;28;20042;-24
2021/08/10 04:18:21;;;;;;;21.83;10.63;;;;;;;21.61;54.81;100196.03;5052911;28;20040;-22
2021/08/10 04:20:47;;;;;;;22.15;9.00;;;;;;;21.77;54.01;100193.16;5067155;28;20028;-22
2021/08/10 04:23:13;;;;;;;17.80;9.68;;;;;;;21.94;53.98;100198.88;5068148;28;20032;-23
2021/08/10 04:25:38;;;;;;;29.48;10.52;;;;;;;22.13;53.98;100200.81;5068500;28;20041;-22
2021/08/10 04:28:04;;;;;;;24.92;11.35;;;;;;;22.06;54.36;100193.84;5067887;28;20501;-23
2021/08/10 04:30:29;;;;;;;17.92;8.95;;;;;;;22.07;55.08;100197.38;5067966;28;20094;-22
2021/08/10 04:32:55;;;;;;;16.38;6.85;;;;;;;22.50;53.94;100199.25;5068193;28;20063;-23
2021/08/10 04:35:20;;;;;;;15.40;6.65;;;;;;;23.18;51.81;100198.66;5068158;28;20103;-23
2021/08/10 04:37:46;;;;;;;15.82;6.82;;;;;;;23.43;50.93;100204.75;5067862;28;20480;-23
2021/08/10 04:40:11;;;;;;;14.07;6.60;;;;;;;23.13;51.79;100212.38;5067405;28;20040;-22
2021/08/10 04:42:37;;;;;;;11.60;7.65;;;;;;;22.78;52.16;100209.13;5067903;28;20473;-23
2021/08/10 04:45:03;;;;;;;17.40;8.80;;;;;;;22.66;51.95;100198.72;5068026;28;20028;-22
2021/08/10 04:47:28;;;;;;;20.13;9.35;;;;;;;22.64;51.95;100192.78;5068043;28;20094;-23
2021/08/10 04:49:53;;;;;;;17.80;9.75;;;;;;;22.86;52.13;100208.44;5067761;28;20058;-23
2021/08/10 04:52:20;;;;;;;21.27;9.50;;;;;;;23.61;50.40;100208.50;5067797;28;20445;-22
2021/08/10 04:54:46;;;;;;;16.25;7.18;;;;;;;23.79;49.70;100201.34;5068026;28;20032;-23
2021/08/10 04:57:12;;;;;;;14.02;7.50;;;;;;;23.88;49.28;100194.06;5072958;28;20470;-22
2021/08/10 04:59:37;;;;;;;14.73;7.88;;;;;;;24.20;48.30;100206.72;5069808;28;20066;-23
2021/08/10 05:02:03;;;;;;;16.35;7.95;;;;;;;24.11;47.99;100200.41;5087552;28;20071;-22
2021/08/10 05:04:28;;;;;;;13.55;7.82;;;;;;;24.35;48.81;100212.94;5087797;28;20032;-23
2021/08/10 05:06:54;;;;;;;11.13;7.43;;;;;;;24.14;49.73;100227.03;5087563;28;20081;-23
2021/08/10 05:09:20;;;;;;;10.45;7.07;;;;;;;24.27;49.76;100222.66;5087796;28;20063;-23
2021/08/10 05:11:45;;;;;;;9.18;6.45;;;;;;;24.32;49.73;100214.38;5087751;28;20089;-23
2021/08/10 05:14:11;;;;;;;7.50;6.03;;;;;;;24.53;48.34;100200.28;5087292;28;20040;-23
2021/08/10 05:16:36;;;;;;;13.10;6.32;;;;;;;24.93;48.37;100222.22;5087565;28;20060;-23
2021/08/10 05:19:02;;;;;;;9.38;5.40;;;;;;;24.94;47.91;100218.38;5087712;28;20082;-23
2021/08/10 05:21:27;;;;;;;8.23;5.60;;;;;;;24.89;48.07;100204.84;5087460;28;20032;-23
2021/08/10 05:23:53;;;;;;;11.00;6.55;;;;;;;25.08;47.42;100219.09;5087439;28;20027;-22
2021/08/10 05:26:18;;;;;;;10.73;6.20;;;;;;;25.48;47.11;100227.38;5087010;28;20054;-23
2021/08/10 05:28:44;;;;;;;15.95;7.03;;;;;;;25.03;44.39;100227.44;5087550;28;20039;-22
2021/08/10 05:31:09;;;;;;;19.48;7.53;;;;;;;24.95;44.64;100222.75;5087739;28;20428;-23
2021/08/10 05:33:35;;;;;;;13.27;7.03;;;;;;;25.38;44.86;100238.56;5087284;28;20027;-23
2021/08/10 05:36:00;;;;;;;14.93;6.40;;;;;;;25.43;44.16;100224.78;5087411;28;20031;-23
2021/08/10 05:38:26;;;;;;;12.50;5.70;;;;;;;25.73;44.25;100235.97;5087115;28;20078;-23
2021/08/10 05:40:53;;;;;;;15.05;7.22;;;;;;;25.79;44.06;100240.19;5086978;28;20035;-22
2021/08/10 05:43:18;;;;;;;19.40;6.53;;;;;;;25.87;44.12;100223.00;5087133;28;20036;-22
2021/08/10 05:45:44;;;;;;;9.43;6.00;;;;;;;25.88;43.93;100235.53;5087199;28;20270;-22
2021/08/10 05:48:10;;;;;;;9.93;5.65;;;;;;;26.02;43.94;100232.69;5087051;28;20510;-23
2021/08/10 05:50:36;;;;;;;11.90;5.68;;;;;;;26.14;43.92;100237.56;5086849;28;20036;-23
2021/08/10 05:53:02;;;;;;;8.63;5.30;;;;;;;26.34;43.15;100234.19;5089187;28;20112;-23
2021/08/10 05:55:28;;;;;;;9.07;5.25;;;;;;;26.56;42.46;100248.81;5091726;28;20077;-23
2021/08/10 05:57:53;;;;;;;7.63;5.18;;;;;;;26.61;42.79;100238.56;5090860;28;20048;-23
2021/08/10 06:00:19;;;;;;;12.82;4.88;;;;;;;26.83;42.64;100243.06;5072710;28;20089;-23
2021/08/10 06:02:44;;;;;;;8.68;4.90;;;;;;;27.08;42.22;100251.53;5091587;28;20036;-23
2021/08/10 06:05:10;;;;;;;9.45;4.72;;;;;;;26.99;42.39;100237.88;5056311;28;20039;-23
2021/08/10 06:07:35;;;;;;;8.77;5.20;;;;;;;26.95;40.83;100241.56;5091045;28;20024;-23
2021/08/10 06:10:01;;;;;;;7.38;4.32;;;;;;;27.09;42.60;100244.94;5091207;28;20040;-23
2021/08/10 06:12:26;;;;;;;6.03;4.32;;;;;;;27.04;42.38;100236.91;5091028;28;20035;-23
2021/08/10 06:14:52;;;;;;;6.43;4.30;;;;;;;27.06;42.02;100240.13;5090989;28;20032;-23
2021/08/10 06:17:18;;;;;;;6.78;4.28;;;;;;;27.48;40.78;100248.53;5090962;28;20028;-23
2021/08/10 06:19:43;;;;;;;7.00;4.05;;;;;;;27.06;41.43;100240.91;5090780;28;20032;-23
2021/08/10 06:22:09;;;;;;;6.82;3.60;;;;;;;27.07;38.99;100241.72;5090956;28;20472;-23
2021/08/10 06:24:34;;;;;;;5.45;3.50;;;;;;;27.35;38.37;100242.16;5090845;28;20101;-22
2021/08/10 06:26:59;;;;;;;7.20;3.80;;;;;;;27.61;36.97;100250.28;5090687;28;20036;-23
2021/08/10 06:29:25;;;;;;;6.00;3.75;;;;;;;27.93;36.25;100248.06;5090676;28;20058;-23
2021/08/10 06:31:50;;;;;;;7.57;3.60;;;;;;;27.72;37.19;100244.41;5090687;28;20483;-22
2021/08/10 06:34:16;;;;;;;6.35;3.65;;;;;;;27.74;38.67;100253.13;5090241;28;20059;-23
2021/08/10 06:36:43;;;;;;;8.13;3.95;;;;;;;27.91;38.08;100242.09;5090829;28;20032;-23
2021/08/10 06:39:09;;;;;;;6.85;3.90;;;;;;;27.95;40.21;100245.78;5090509;28;20065;-23
2021/08/10 06:41:34;;;;;;;6.38;3.90;;;;;;;28.00;39.16;100240.09;5090613;28;20074;-23
2021/08/10 06:44:00;;;;;;;6.47;4.20;;;;;;;27.98;39.43;100234.16;5090513;28;20020;-22
2021/08/10 06:46:26;;;;;;;6.05;3.90;;;;;;;28.22;39.77;100246.41;5090299;28;20437;-23
2021/08/10 06:48:52;;;;;;;6.32;3.90;;;;;;;28.26;37.88;100239.13;5090621;28;20028;-22
2021/08/10 06:51:17;;;;;;;7.07;3.38;;;;;;;28.50;37.84;100234.94;5090452;28;20467;-23
2021/08/10 06:53:43;;;;;;;9.05;4.05;;;;;;;28.89;36.63;100224.56;5072379;28;20483;-22
2021/08/10 06:56:08;;;;;;;7.07;4.90;;;;;;;28.69;36.38;100232.50;5089923;28;20506;-23
2021/08/10 06:58:34;;;;;;;5.18;3.72;;;;;;;28.80;35.96;100239.16;5089749;28;20056;-22
2021/08/10 07:01:00;;;;;;;7.65;3.95;;;;;;;28.74;36.08;100231.50;5090170;28;20509;-23
2021/08/10 07:03:25;;;;;;;6.47;3.70;;;;;;;28.80;35.67;100225.44;5089421;28;20055;-22
2021/08/10 07:05:50;;;;;;;7.93;4.38;;;;;;;28.90;36.46;100239.91;5090199;28;20028;-23
2021/08/10 07:08:16;;;;;;;10.70;4.10;;;;;;;28.92;36.66;100226.63;5089781;28;20039;-23
2021/08/10 07:10:41;;;;;;;6.95;4.25;;;;;;;29.49;37.03;100225.06;5089943;28;20028;-23
2021/08/10 07:13:07;;;;;;;7.18;3.72;;;;;;;29.56;34.17;100220.56;5089899;28;20028;-23
2021/08/10 07:15:33;;;;;;;6.53;3.60;;;;;;;29.86;36.64;100206.63;5090077;28;20908;-23
2021/08/10 07:18:00;;;;;;;6.03;4.22;;;;;;;29.97;35.53;100206.94;5090151;28;20020;-23
2021/08/10 07:20:26;;;;;;;;;;;;;;;30.09;34.67;100211.63;5090204;28;20759;-23
2021/08/10 07:22:51;;;;;;;8.90;4.50;;;;;;;30.20;34.88;100199.00;5089971;28;19912;-22
2021/08/10 07:25:19;;;;;;;8.43;4.63;;;;;;;30.00;32.68;100200.75;5089828;28;20040;-23
2021/08/10 07:27:44;;;;;;;;;;;;;;;30.61;33.85;100202.53;5089994;28;20036;-23
2021/08/10 07:30:10;;;;;;;7.70;5.20;;;;;;;30.34;32.50;100202.19;5089520;28;19912;-23
2021/08/10 07:32:36;;;;;;;10.18;4.78;;;;;;;30.07;34.77;100200.97;5089850;28;20281;-23
2021/08/10 07:35:01;;;;;;;7.85;4.93;;;;;;;30.03;32.91;100186.31;5089568;28;20024;-23
2021/08/10 07:37:27;;;;;;;9.00;5.00;;;;;;;30.39;32.22;100179.91;5089541;28;20036;-22
2021/08/10 07:39:52;;;;;;;7.97;5.13;;;;;;;30.48;34.17;100165.22;5089361;28;20035;-22
2021/08/10 07:42:18;;;;;;;7.78;4.90;;;;;;;30.51;33.21;100173.56;5089052;28;20417;-22
2021/08/10 07:44:43;;;;;;;8.93;4.82;;;;;;;30.55;34.25;100170.94;5089276;28;20039;-22
2021/08/10 07:47:09;;;;;;;6.82;4.65;;;;;;;30.71;32.14;100180.00;5089181;28;20043;-23
2021/08/10 07:49:37;;;;;;;7.38;4.72;;;;;;;30.67;32.74;100170.88;5089837;28;20039;-23
2021/08/10 07:52:03;;;;;;;9.00;4.85;;;;;;;30.82;33.82;100175.59;5088673;28;20043;-23
2021/08/10 07:54:29;;;;;;;7.65;4.63;;;;;;;31.30;32.10;100194.91;5089195;28;20028;-23
2021/08/10 07:56:54;;;;;;;6.55;5.18;;;;;;;31.43;32.25;100185.41;5088984;28;20036;-23
2021/08/10 07:59:20;;;;;;;10.02;5.15;;;;;;;31.47;31.43;100193.78;5088998;28;20036;-23
2021/08/10 08:01:45;;;;;;;8.85;4.78;;;;;;;31.35;32.14;100186.38;5089356;28;20032;-23
2021/08/10 08:04:11;;;;;;;9.70;5.07;;;;;;;31.69;31.35;100192.34;5088917;28;20772;-22
2021/08/10 08:06:36;;;;;;;9.07;5.57;;;;;;;31.68;30.55;100196.25;5088964;28;20037;-22
2021/08/10 08:09:02;;;;;;;7.32;5.15;;;;;;;32.11;29.50;100188.16;5088787;28;20122;-23
2021/08/10 08:11:27;;;;;;;8.77;5.63;;;;;;;32.59;30.91;100203.34;5088925;28;20838;-22
2021/08/10 08:13:53;;;;;;;16.05;6.13;;;;;;;32.65;30.29;100189.22;5088845;28;20028;-23
2021/08/10 08:16:18;;;;;;;12.50;5.72;;;;;;;32.37;29.28;100202.09;5069626;28;20129;-22
2021/08/10 08:18:43;;;;;;;9.48;4.70;;;;;;;32.59;29.96;100197.81;5088662;28;20032;-23
2021/08/10 08:21:09;;;;;;;8.73;5.40;;;;;;;32.60;29.32;100201.38;5088754;28;20058;-23
2021/08/10 08:23:37;;;;;;;10.45;5.72;;;;;;;32.93;30.21;100195.28;5070431;28;20032;-22
2021/08/10 08:26:02;;;;;;;9.48;5.22;;;;;;;32.94;28.76;100193.34;5088272;28;20040;-22
2021/08/10 08:28:28;;;;;;;7.68;5.50;;;;;;;33.23;29.08;100195.44;5070279;28;20077;-22
2021/08/10 08:30:53;;;;;;;8.65;5.40;;;;;;;33.44;28.28;100180.34;5088859;28;20027;-23
2021/08/10 08:33:18;;;;;;;11.32;5.63;;;;;;;33.49;28.77;100177.28;5088421;28;20039;-22
2021/08/10 08:35:44;;;;;;;8.50;5.38;;;;;;;33.09;28.35;100170.31;5088469;28;20024;-22
2021/08/10 08:38:10;;;;;;;9.23;5.53;;;;;;;33.28;28.69;100182.47;5088149;28;20042;-22
2021/08/10 08:40:37;;;;;;;11.23;6.10;;;;;;;33.19;28.61;100163.38;5070435;28;20020;-22
2021/08/10 08:43:02;;;;;;;7.83;5.70;;;;;;;33.20;28.39;100179.59;5088417;28;20143;-22
2021/08/10 08:45:28;;;;;;;9.98;6.00;;;;;;;33.35;27.49;100180.63;5088155;28;20093;-22
2021/08/10 08:47:53;;;;;;;9.82;6.07;;;;;;;33.80;28.29;100181.72;5087815;28;20020;-22
2021/08/10 08:50:20;;;;;;;11.70;6.35;;;;;;;33.67;27.82;100165.72;5088164;28;20769;-22
2021/08/10 08:52:49;;;;;;;8.77;6.20;;;;;;;34.01;27.22;100175.66;5088115;28;20035;-23
2021/08/10 08:55:15;;;;;;;8.77;5.95;;;;;;;33.61;28.49;100157.75;5070553;28;20028;-22
2021/08/10 08:57:40;;;;;;;10.95;6.38;;;;;;;33.89;28.40;100162.06;5069890;28;20056;-22
2021/08/10 09:00:07;;;;;;;12.73;6.80;;;;;;;34.11;27.82;100162.34;5069662;28;20039;-22
2021/08/10 09:02:34;;;;;;;7.70;6.00;;;;;;;34.64;27.34;100156.63;5087930;28;20052;-23
2021/08/10 09:04:59;;;;;;;14.68;9.80;;;;;;;34.83;26.84;100152.88;5087828;28;20407;-22
2021/08/10 09:07:29;;;;;;;8.75;6.65;;;;;;;34.13;28.20;100146.16;5087762;28;20028;-22
2021/08/10 09:10:08;;;;;;;6.88;5.57;;;;;;;34.76;27.34;100141.75;5087982;28;20028;-22
2021/08/10 09:12:44;;;;;;;10.30;6.20;;;;;;;34.72;26.80;100140.91;5087517;28;20034;-22
2021/08/10 09:15:10;;;;;;;8.55;6.22;;;;;;;34.64;26.78;100128.94;5087968;28;20830;-23
2021/08/10 09:17:44;;;;;;;9.73;6.30;;;;;;;35.20;26.53;100141.72;5087698;28;20111;-22
2021/08/10 09:20:10;;;;;;;7.50;5.50;;;;;;;34.84;25.36;100142.59;5070401;28;20254;-22
2021/08/10 09:22:36;;;;;;;8.57;5.00;;;;;;;35.04;26.94;100145.94;5087721;28;20563;-22
2021/08/10 09:25:06;;;;;;;10.25;5.10;;;;;;;35.32;26.20;100134.28;5087571;28;20041;-22
2021/08/10 09:27:36;;;;;;;8.45;5.80;;;;;;;35.46;25.01;100144.69;5069094;28;20063;-22
2021/08/10 09:30:02;;;;;;;8.02;5.43;;;;;;;35.31;24.98;100138.25;5087253;28;20097;-22
2021/08/10 09:32:28;;;;;;;9.73;6.03;;;;;;;35.44;26.24;100135.97;5069343;28;20130;-22
2021/08/10 09:35:06;;;;;;;8.25;5.50;;;;;;;35.70;25.21;100129.41;5087504;28;20028;-22
2021/08/10 09:37:31;;;;;;;9.25;5.63;;;;;;;36.18;25.34;100123.66;5087306;28;20028;-22
2021/08/10 09:39:56;;;;;;;9.43;5.55;;;;;;;35.74;25.67;100127.44;5087387;28;20028;-22
2021/08/10 09:42:23;;;;;;;6.65;5.18;;;;;;;35.80;26.24;100112.81;5087260;28;20419;-22
2021/08/10 09:44:57;;;;;;;9.38;5.40;;;;;;;35.89;23.75;100123.53;5087295;28;20098;-22
2021/08/10 09:47:36;;;;;;;9.05;5.72;;;;;;;36.11;23.21;100106.97;5087411;28;20027;-22
2021/08/10 09:50:02;;;;;;;8.30;5.15;;;;;;;36.15;24.56;100107.81;5087057;28;20511;-22
2021/08/10 09:52:29;;;;;;;7.47;5.10;;;;;;;35.78;22.44;100100.53;5087127;28;20063;-22
2021/08/10 09:54:55;;;;;;;8.00;4.78;;;;;;;36.06;23.42;100115.66;5087223;28;20407;-22
2021/08/10 09:57:20;;;;;;;8.63;5.05;;;;;;;36.20;24.33;100110.97;5086943;28;20496;-23
2021/08/10 09:59:46;;;;;;;6.47;4.45;;;;;;;36.09;22.62;100101.03;5086900;28;20052;-22
2021/08/10 10:02:20;;;;;;;8.02;4.55;;;;;;;35.96;21.54;100111.66;5086769;28;20024;-22
2021/08/10 10:04:50;;;;;;;8.45;4.70;;;;;;;36.03;22.74;100110.91;5087017;28;20024;-22
2021/08/10 10:07:16;;;;;;;6.82;4.90;;;;;;;36.00;21.41;100102.19;5087050;28;20555;-22
2021/08/10 10:09:42;;;;;;;8.73;5.05;;;;;;;36.71;20.42;100111.09;5087212;28;20036;-22
2021/08/10 10:12:08;;;;;;;10.50;4.88;;;;;;;36.38;19.82;100088.81;5086673;28;20049;-22
2021/08/10 10:14:33;;;;;;;5.95;4.85;;;;;;;37.27;20.20;100100.34;5087180;28;20408;-22
2021/08/10 10:16:59;;;;;;;7.57;4.90;;;;;;;37.51;19.46;100102.28;5087155;28;20031;-23
2021/08/10 10:19:24;;;;;;;8.63;4.65;;;;;;;38.01;18.32;100101.34;5069046;28;20039;-22
2021/08/10 10:21:54;;;;;;;7.47;4.80;;;;;;;37.53;20.64;100091.53;5087306;28;20491;-22
2021/08/10 10:24:20;;;;;;;6.57;4.80;;;;;;;37.26;20.64;100082.09;5086611;28;20115;-22
2021/08/10 10:26:53;;;;;;;6.78;4.80;;;;;;;37.49;21.62;100090.75;5087096;28;20518;-22
2021/08/10 10:29:19;;;;;;;7.57;5.28;;;;;;;37.54;21.60;100084.81;5052847;28;20031;-22
2021/08/10 10:31:44;;;;;;;7.20;4.68;;;;;;;37.42;20.03;100074.13;5052143;28;20028;-22
2021/08/10 10:34:14;;;;;;;6.70;4.95;;;;;;;37.16;20.51;100067.81;5086485;28;20156;-22
2021/08/10 10:36:41;;;;;;;7.55;4.97;;;;;;;37.04;21.00;100062.63;5086795;28;20110;-22
2021/08/10 10:39:07;;;;;;;7.80;5.20;;;;;;;37.06;20.33;100059.47;5088439;28;20119;-22
2021/08/10 10:41:33;;;;;;;7.45;5.07;;;;;;;37.22;20.11;100057.06;5072405;28;20127;-22
2021/08/10 10:43:59;;;;;;;6.30;4.78;;;;;;;37.17;21.46;100068.63;5072180;28;20032;-23
2021/08/10 10:46:35;;;;;;;9.05;5.38;;;;;;;37.43;21.42;100061.78;5090524;28;20035;-22
2021/08/10 10:49:01;;;;;;;13.35;5.40;;;;;;;37.93;18.76;100039.31;5090422;28;20109;-22
2021/08/10 10:51:29;;;;;;;7.72;5.93;;;;;;;38.32;18.75;100043.88;5090406;28;20031;-23
2021/08/10 10:54:27;;;;;;;7.72;5.90;;;;;;;38.85;16.78;100052.22;5090219;28;20040;-22
2021/08/10 10:56:59;;;;;;;8.68;5.80;;;;;;;39.06;17.23;100049.25;5090155;28;20027;-22
2021/08/10 10:59:34;;;;;;;9.55;5.88;;;;;;;39.44;17.33;100046.47;5090343;28;20428;-22
2021/08/10 11:02:19;;;;;;;9.20;5.43;;;;;;;39.89;18.76;100046.31;5072307;28;20101;-23
2021/08/10 11:05:05;;;;;;;8.95;5.32;;;;;;;39.45;18.42;100039.66;5090272;28;20035;-22
2021/08/10 11:07:37;;;;;;;6.90;5.13;;;;;;;39.61;18.00;100024.34;5090344;28;20781;-23
2021/08/10 11:10:07;;;;;;;6.88;5.00;;;;;;;39.22;18.41;100031.16;5089814;28;20403;-22
2021/08/10 11:12:46;;;;;;;6.85;5.20;;;;;;;39.06;17.71;100024.16;5089664;28;20559;-22
2021/08/10 11:15:23;;;;;;;8.35;4.78;;;;;;;39.10;17.60;100021.34;5090057;28;20028;-22
2021/08/10 11:18:07;;;;;;;7.72;5.32;;;;;;;39.56;17.87;100029.19;5071685;28;20487;-22
2021/08/10 11:20:32;;;;;;;9.65;4.97;;;;;;;39.59;16.54;100024.75;5090116;28;20097;-22
2021/08/10 11:23:17;;;;;;;7.43;4.87;;;;;;;39.56;15.89;100022.81;5089669;28;20804;-22